Time;durP1;ratioP1;P1;durP2;ratioP2;P2;SDS_P1;SDS_P2;PMS_P1;PMS_P2;Temp;Humidity;BMP_temperature;BMP_pressure;BME280_temperature;BME280_humidity;BME280_pressure;Samples;Min_cycle;Max_cycle;Signal;HPM_P1;HPM_P2
2021/01/23 00:01:51;;;;;;;2.00;1.90;;;;;;;2.17;80.57;94628.63;5074471;28;20451;-66
2021/01/23 00:04:17;;;;;;;1.90;1.80;;;;;;;1.95;81.15;94625.75;5072699;28;20182;-66
2021/01/23 00:06:42;;;;;;;2.30;2.20;;;;;;;2.12;80.81;94630.91;5073153;28;20222;-68
2021/01/23 00:09:08;;;;;;;2.20;2.03;;;;;;;2.06;81.30;94637.56;5069286;28;20212;-66
2021/01/23 00:11:34;;;;;;;2.30;2.10;;;;;;;1.85;81.88;94638.03;5065624;28;20178;-68
2021/01/23 00:13:59;;;;;;;2.90;2.70;;;;;;;1.90;81.66;94646.09;5073498;28;20328;-66
2021/01/23 00:16:25;;;;;;;2.60;2.50;;;;;;;2.06;81.54;94647.06;5074078;28;20494;-67
2021/01/23 00:18:51;;;;;;;2.97;2.70;;;;;;;1.96;82.38;94645.47;5072954;28;20282;-67
2021/01/23 00:21:16;;;;;;;3.10;2.90;;;;;;;1.87;82.20;94656.75;5073393;28;20182;-67
2021/01/23 00:23:42;;;;;;;7.47;3.23;;;;;;;1.99;81.79;94665.81;5073450;28;20629;-66
2021/01/23 00:26:08;;;;;;;3.40;3.10;;;;;;;2.03;82.08;94660.28;5071896;28;20297;-66
2021/01/23 00:28:33;;;;;;;3.80;3.37;;;;;;;2.00;82.28;94666.59;5072231;28;20588;-67
2021/01/23 00:31:00;;;;;;;5.20;3.23;;;;;;;1.67;83.33;94669.16;5069630;28;20187;-66
2021/01/23 00:33:26;;;;;;;2.83;2.63;;;;;;;1.81;83.33;94671.13;5060181;28;20560;-67
2021/01/23 00:35:52;;;;;;;3.73;3.37;;;;;;;2.03;82.00;94675.78;5064251;28;20433;-66
2021/01/23 00:38:18;;;;;;;3.47;3.17;;;;;;;1.90;82.98;94679.66;5073893;28;20474;-66
2021/01/23 00:40:44;;;;;;;2.70;2.50;;;;;;;2.02;82.25;94679.38;5046436;28;20500;-67
2021/01/23 00:43:09;;;;;;;2.73;2.53;;;;;;;1.96;82.69;94676.44;5064535;28;20436;-67
2021/01/23 00:45:35;;;;;;;3.77;2.50;;;;;;;2.03;82.31;94678.38;5073211;28;20198;-65
2021/01/23 00:48:10;;;;;;;2.87;2.67;;;;;;;1.83;83.34;94686.44;5063403;28;20202;-65
2021/01/23 00:50:36;;;;;;;3.30;3.10;;;;;;;1.84;82.88;94688.06;5070054;28;20177;-67
2021/01/23 00:53:02;;;;;;;3.50;3.20;;;;;;;2.01;82.73;94694.06;5062361;28;20482;-65
2021/01/23 00:55:28;;;;;;;3.50;3.20;;;;;;;2.12;81.91;94700.69;5059218;28;20197;-65
2021/01/23 00:57:54;;;;;;;3.50;3.20;;;;;;;1.97;82.51;94703.09;5076571;28;20785;-64
2021/01/23 01:00:20;;;;;;;4.50;3.80;;;;;;;1.71;83.07;94704.00;5072609;28;20179;-65
2021/01/23 01:02:46;;;;;;;3.30;3.10;;;;;;;2.01;82.31;94703.59;5071980;28;20285;-66
2021/01/23 01:05:12;;;;;;;4.00;3.20;;;;;;;1.91;82.02;94699.38;5070838;28;20450;-68
2021/01/23 01:07:37;;;;;;;3.73;3.40;;;;;;;1.90;81.50;94702.91;5072551;28;20255;-67
2021/01/23 01:10:03;;;;;;;3.60;3.30;;;;;;;2.13;81.63;94707.47;5068671;28;20467;-68
2021/01/23 01:12:29;;;;;;;4.20;3.80;;;;;;;2.26;81.49;94710.38;5072663;28;20544;-68
2021/01/23 01:14:55;;;;;;;3.93;3.63;;;;;;;2.18;81.42;94710.38;5072549;28;20449;-65
2021/01/23 01:17:20;;;;;;;4.33;3.93;;;;;;;2.19;81.28;94726.69;5072414;28;20170;-67
2021/01/23 01:19:46;;;;;;;4.57;4.17;;;;;;;2.15;81.47;94731.34;5072400;28;20182;-66
2021/01/23 01:22:12;;;;;;;8.50;4.53;;;;;;;2.11;81.36;94736.03;5071912;28;20182;-68
2021/01/23 01:24:37;;;;;;;5.00;4.40;;;;;;;2.32;81.55;94741.72;5065206;28;20297;-67
2021/01/23 01:27:03;;;;;;;5.63;4.90;;;;;;;1.99;81.74;94738.16;5052699;28;20207;-67
2021/01/23 01:29:29;;;;;;;4.53;4.13;;;;;;;2.05;82.35;94741.84;5067163;28;20790;-65
2021/01/23 01:31:55;;;;;;;4.40;4.00;;;;;;;2.23;81.45;94746.06;5072762;28;20432;-65
2021/01/23 01:34:20;;;;;;;4.40;4.00;;;;;;;2.16;81.27;94748.47;5072670;28;20752;-68
2021/01/23 01:36:46;;;;;;;4.47;4.07;;;;;;;2.02;81.84;94756.88;5064761;28;20273;-66
2021/01/23 01:39:12;;;;;;;5.57;4.00;;;;;;;2.23;81.29;94764.97;5068334;28;20513;-67
2021/01/23 01:41:38;;;;;;;4.20;3.80;;;;;;;2.12;81.88;94767.88;5064521;28;20213;-65
2021/01/23 01:44:06;;;;;;;4.97;3.90;;;;;;;2.45;80.12;94775.63;5067758;28;20198;-66
2021/01/23 01:46:32;;;;;;;4.73;4.20;;;;;;;2.32;80.48;94789.06;5066914;28;20983;-67
2021/01/23 01:48:59;;;;;;;4.30;4.00;;;;;;;2.06;81.26;94786.56;5071796;28;20461;-66
2021/01/23 01:51:26;;;;;;;4.20;3.80;;;;;;;2.01;81.75;94789.63;5072470;28;20746;-66
2021/01/23 01:53:53;;;;;;;3.27;3.07;;;;;;;2.26;80.64;94789.69;5071871;28;20427;-66
2021/01/23 01:56:20;;;;;;;3.40;3.10;;;;;;;2.08;81.04;94793.19;5062617;28;20847;-66
2021/01/23 01:58:45;;;;;;;3.50;3.20;;;;;;;2.24;80.86;94802.78;5062991;28;20464;-66
2021/01/23 02:01:11;;;;;;;3.43;3.13;;;;;;;2.55;80.24;94796.97;5072208;28;20924;-67
2021/01/23 02:03:46;;;;;;;3.37;3.07;;;;;;;2.31;81.02;94797.78;5069851;28;20210;-66
2021/01/23 02:06:42;;;;;;;2.50;2.30;;;;;;;2.39;80.26;94802.16;5068451;28;20202;-65
2021/01/23 02:09:14;;;;;;;3.00;2.80;;;;;;;2.41;80.28;94808.78;5067895;28;20841;-65
2021/01/23 02:12:09;;;;;;;3.47;2.87;;;;;;;2.34;80.45;94817.31;5071951;28;20468;-67
2021/01/23 02:15:09;;;;;;;4.30;2.80;;;;;;;2.33;80.39;94815.69;5070870;28;20453;-67
2021/01/23 02:17:41;;;;;;;2.87;2.67;;;;;;;2.44;80.07;94830.91;5073219;28;20408;-66
2021/01/23 02:20:19;;;;;;;3.37;3.07;;;;;;;2.39;79.78;94833.16;5074829;28;21094;-66
2021/01/23 02:22:47;;;;;;;3.23;2.93;;;;;;;2.21;80.71;94836.69;5064932;28;20429;-66
2021/01/23 02:25:14;;;;;;;2.60;2.40;;;;;;;2.25;80.35;94843.16;5071619;28;20527;-67
2021/01/23 02:27:45;;;;;;;3.47;2.70;;;;;;;2.40;79.35;94853.69;5066046;28;20453;-67
2021/01/23 02:30:20;;;;;;;2.70;2.50;;;;;;;2.56;78.91;94845.13;5075146;28;20401;-66
2021/01/23 02:32:52;;;;;;;2.50;2.30;;;;;;;2.81;78.13;94845.16;5077432;28;20411;-68
2021/01/23 02:35:19;;;;;;;2.60;2.33;;;;;;;2.78;78.18;94855.00;5091660;28;21066;-68
2021/01/23 02:37:45;;;;;;;2.80;2.60;;;;;;;2.88;77.75;94856.47;5073930;28;20449;-67
2021/01/23 02:40:11;;;;;;;1.93;1.80;;;;;;;2.97;77.53;94859.06;5070231;28;20420;-67
2021/01/23 02:42:37;;;;;;;2.63;2.20;;;;;;;2.99;77.14;94860.50;5065797;28;20431;-68
2021/01/23 02:45:08;;;;;;;2.47;2.27;;;;;;;3.11;77.06;94871.34;5074925;28;20455;-67
2021/01/23 02:47:34;;;;;;;2.20;2.10;;;;;;;2.77;78.16;94882.66;5075240;28;20200;-66
2021/01/23 02:50:00;;;;;;;2.20;2.10;;;;;;;2.64;78.69;94890.09;5075239;28;20416;-65
2021/01/23 02:52:53;;;;;;;2.43;2.23;;;;;;;2.74;78.62;94896.72;5074525;28;20449;-67
2021/01/23 02:55:20;;;;;;;2.10;2.00;;;;;;;2.56;79.08;94889.09;5071740;28;20939;-67
2021/01/23 02:57:48;;;;;;;2.53;2.33;;;;;;;2.76;78.63;94886.22;5074128;28;20427;-67
2021/01/23 03:00:16;;;;;;;2.43;2.23;;;;;;;2.67;78.48;94889.75;5073156;28;20512;-67
2021/01/23 03:02:46;;;;;;;2.50;2.30;;;;;;;2.80;78.51;94889.28;5065851;28;20421;-67
2021/01/23 03:05:12;;;;;;;2.90;2.70;;;;;;;2.91;77.95;94887.19;5072530;28;20439;-66
2021/01/23 03:07:38;;;;;;;2.90;2.70;;;;;;;3.14;76.68;94901.25;5066253;28;20460;-67
2021/01/23 03:10:07;;;;;;;3.10;2.90;;;;;;;2.96;77.75;94914.38;5050939;28;20508;-67
2021/01/23 03:12:34;;;;;;;3.30;3.00;;;;;;;3.12;76.88;94924.72;5073198;28;20183;-66
2021/01/23 03:14:59;;;;;;;3.00;2.80;;;;;;;2.81;78.19;94921.97;5073406;28;20860;-64
2021/01/23 03:17:25;;;;;;;3.47;3.17;;;;;;;3.03;77.70;94929.09;5053044;28;20509;-67
2021/01/23 03:19:51;;;;;;;3.27;3.07;;;;;;;3.10;77.21;94929.25;5066290;28;20413;-65
2021/01/23 03:22:17;;;;;;;4.13;3.60;;;;;;;2.73;77.84;94931.31;5073328;28;20931;-65
2021/01/23 03:24:43;;;;;;;4.23;3.40;;;;;;;2.87;78.07;94926.47;5070400;28;20282;-67
2021/01/23 03:27:10;;;;;;;4.10;3.80;;;;;;;3.01;77.41;94933.59;5052247;28;20559;-67
2021/01/23 03:29:35;;;;;;;5.10;3.67;;;;;;;2.76;78.51;94931.00;5067582;28;20479;-67
2021/01/23 03:32:01;;;;;;;4.93;3.60;;;;;;;2.71;78.20;94932.44;5073164;28;20448;-67
2021/01/23 03:34:27;;;;;;;4.30;3.90;;;;;;;2.75;78.57;94944.91;5065752;28;20194;-66
2021/01/23 03:36:52;;;;;;;4.67;4.17;;;;;;;2.93;78.01;94951.72;5069720;28;20178;-67
2021/01/23 03:39:18;;;;;;;4.23;3.83;;;;;;;2.84;77.70;94945.72;5062052;28;20182;-67
2021/01/23 03:41:44;;;;;;;4.20;3.80;;;;;;;2.80;78.92;94947.00;5064882;28;20197;-67
2021/01/23 03:44:09;;;;;;;3.50;3.20;;;;;;;2.70;78.60;94952.34;5072640;28;20668;-66
2021/01/23 03:46:35;;;;;;;4.00;3.70;;;;;;;2.72;78.87;94945.19;5073138;28;20228;-66
2021/01/23 03:49:01;;;;;;;3.90;3.57;;;;;;;2.72;78.00;94955.56;5072873;28;20187;-66
2021/01/23 03:51:27;;;;;;;3.40;3.10;;;;;;;2.91;77.41;94954.44;5071397;28;20211;-67
2021/01/23 03:53:52;;;;;;;4.00;3.17;;;;;;;2.83;77.82;94964.78;5063415;28;20186;-65
2021/01/23 03:56:18;;;;;;;5.10;3.87;;;;;;;2.73;78.04;94972.69;5065576;28;20441;-66
2021/01/23 03:58:44;;;;;;;4.53;2.90;;;;;;;2.84;77.48;94965.59;5072814;28;20231;-65
2021/01/23 04:01:10;;;;;;;3.10;2.80;;;;;;;2.69;78.80;94970.59;5072641;28;20178;-66
2021/01/23 04:03:35;;;;;;;3.47;3.10;;;;;;;2.92;77.67;94975.97;5063162;28;20224;-66
2021/01/23 04:06:03;;;;;;;3.33;3.07;;;;;;;2.93;77.34;94980.19;5072136;28;20286;-65
2021/01/23 04:08:29;;;;;;;5.60;3.27;;;;;;;2.76;77.89;94976.75;5072267;28;20191;-68
2021/01/23 04:10:55;;;;;;;3.23;2.70;;;;;;;2.49;78.92;94988.13;5068994;28;20420;-67
2021/01/23 04:13:21;;;;;;;3.40;3.10;;;;;;;2.63;78.81;94986.75;5075034;28;20429;-67
2021/01/23 04:15:46;;;;;;;4.03;3.00;;;;;;;2.84;77.30;94986.28;5072627;28;20194;-65
2021/01/23 04:18:12;;;;;;;3.47;2.90;;;;;;;2.94;76.99;94978.41;5068325;28;20176;-65
2021/01/23 04:20:38;;;;;;;3.50;2.83;;;;;;;3.05;76.47;94991.84;5067839;28;20702;-67
2021/01/23 04:23:04;;;;;;;3.63;3.33;;;;;;;3.51;75.05;94993.97;5071728;28;20220;-67
2021/01/23 04:25:29;;;;;;;3.77;3.40;;;;;;;3.44;75.32;94993.00;5072427;28;20203;-65
2021/01/23 04:27:55;;;;;;;3.30;3.00;;;;;;;3.32;75.12;94989.13;5062470;28;20280;-67
2021/01/23 04:30:23;;;;;;;5.53;3.33;;;;;;;3.42;74.20;94992.34;5039419;28;20175;-67
2021/01/23 04:32:48;;;;;;;4.73;3.67;;;;;;;3.10;75.55;94988.78;5051883;28;20255;-67
2021/01/23 04:35:14;;;;;;;5.00;3.17;;;;;;;3.13;75.69;94985.88;5060422;28;20933;-67
2021/01/23 04:37:40;;;;;;;3.57;3.27;;;;;;;3.27;74.67;94994.78;5060691;28;20183;-66
2021/01/23 04:40:08;;;;;;;4.40;3.00;;;;;;;2.73;76.95;94995.19;5051607;28;20262;-66
2021/01/23 04:42:34;;;;;;;3.33;3.03;;;;;;;3.32;74.92;94996.88;5059914;28;20520;-66
2021/01/23 04:45:00;;;;;;;3.50;2.93;;;;;;;3.42;73.75;94989.75;5050457;28;20506;-66
2021/01/23 04:47:26;;;;;;;4.17;3.30;;;;;;;3.49;74.15;94977.78;5052230;28;20453;-66
2021/01/23 04:49:52;;;;;;;4.03;3.50;;;;;;;3.16;75.10;94982.16;5051486;28;20267;-66
2021/01/23 04:52:18;;;;;;;4.10;3.20;;;;;;;3.48;74.33;94981.34;5052014;28;20668;-66
2021/01/23 04:54:44;;;;;;;4.00;3.60;;;;;;;3.12;75.45;94984.25;5051479;28;20203;-69
2021/01/23 04:57:10;;;;;;;3.30;3.03;;;;;;;3.22;74.98;94981.50;5055322;28;20421;-68
2021/01/23 04:59:36;;;;;;;4.67;3.73;;;;;;;3.36;74.09;94986.03;5053133;28;20456;-67
2021/01/23 05:02:18;;;;;;;4.60;3.13;;;;;;;3.26;75.38;94987.19;5058599;28;20183;-65
2021/01/23 05:04:51;;;;;;;2.93;2.70;;;;;;;3.36;73.96;94980.06;5051004;28;20445;-65
2021/01/23 05:07:33;;;;;;;2.60;2.40;;;;;;;3.55;74.08;94978.91;5051387;28;20886;-66
2021/01/23 05:10:18;;;;;;;2.50;2.27;;;;;;;3.53;73.88;94980.84;5051045;28;20479;-67
2021/01/23 05:12:54;;;;;;;3.00;2.70;;;;;;;3.43;74.74;94977.63;5051643;28;20496;-68
2021/01/23 05:15:25;;;;;;;3.60;3.10;;;;;;;3.29;74.40;94981.66;5051783;28;20449;-66
2021/01/23 05:18:07;;;;;;;2.90;2.60;;;;;;;3.05;75.19;94978.91;5052544;28;20760;-67
2021/01/23 05:20:53;;;;;;;2.77;2.57;;;;;;;3.43;74.54;94982.81;5065174;28;20791;-65
2021/01/23 05:23:21;;;;;;;2.57;2.30;;;;;;;3.02;76.14;94986.19;5058221;28;20932;-66
2021/01/23 05:25:49;;;;;;;3.50;3.20;;;;;;;3.38;74.65;94985.88;5051756;28;20486;-64
2021/01/23 05:28:25;;;;;;;3.20;2.90;;;;;;;3.58;73.81;94983.78;5051399;28;20450;-66
2021/01/23 05:30:52;;;;;;;2.60;2.40;;;;;;;3.13;74.64;94991.06;5047651;28;20425;-66
2021/01/23 05:33:31;;;;;;;4.30;2.37;;;;;;;3.30;74.92;94991.03;5051326;28;20428;-65
2021/01/23 05:36:01;;;;;;;3.57;3.27;;;;;;;3.55;73.13;94991.88;5059504;28;20483;-68
2021/01/23 05:38:36;;;;;;;3.23;2.83;;;;;;;3.85;72.25;95002.50;5052031;28;20421;-65
2021/01/23 05:41:08;;;;;;;4.90;2.90;;;;;;;3.75;72.36;94997.53;5051087;28;20425;-68
2021/01/23 05:43:42;;;;;;;3.70;3.40;;;;;;;3.93;72.04;94999.09;5055081;28;20437;-66
2021/01/23 05:46:10;;;;;;;3.77;3.37;;;;;;;3.76;71.61;95009.50;5077928;28;20461;-67
2021/01/23 05:48:43;;;;;;;2.43;2.23;;;;;;;3.84;71.73;95004.31;5064835;28;20432;-66
2021/01/23 05:51:09;;;;;;;6.13;2.27;;;;;;;3.98;71.00;95012.38;5043300;28;20428;-67
2021/01/23 05:53:35;;;;;;;3.10;2.80;;;;;;;3.77;71.28;95000.78;5054774;28;20425;-67
2021/01/23 05:56:01;;;;;;;2.60;2.40;;;;;;;3.72;71.43;94997.06;5055497;28;20445;-66
2021/01/23 05:58:31;;;;;;;3.53;2.70;;;;;;;3.43;72.57;94993.16;5055690;28;20575;-67
2021/01/23 06:00:58;;;;;;;3.10;2.50;;;;;;;3.60;72.18;94984.41;5055086;28;20440;-66
2021/01/23 06:03:40;;;;;;;4.10;2.97;;;;;;;3.84;70.77;94993.94;5055501;28;20939;-66
2021/01/23 06:06:06;;;;;;;2.77;2.40;;;;;;;3.72;71.12;94987.47;5054127;28;20809;-67
2021/01/23 06:08:45;;;;;;;2.97;2.77;;;;;;;3.71;71.54;94988.44;5055903;28;20425;-67
2021/01/23 06:11:19;;;;;;;3.00;2.23;;;;;;;3.24;73.11;94992.50;5062108;28;20187;-65
2021/01/23 06:13:53;;;;;;;3.00;2.70;;;;;;;3.50;72.32;94991.53;5055102;28;20413;-65
2021/01/23 06:16:34;;;;;;;5.03;3.00;;;;;;;3.11;74.26;94994.75;5060320;28;20440;-67
2021/01/23 06:19:06;;;;;;;3.43;3.13;;;;;;;3.59;72.45;94987.16;5056302;28;20572;-66
2021/01/23 06:21:44;;;;;;;3.47;3.17;;;;;;;3.38;72.93;94985.88;5054981;28;20420;-67
2021/01/23 06:24:13;;;;;;;3.60;2.77;;;;;;;3.38;72.63;94980.72;5055065;28;20424;-66
2021/01/23 06:26:54;;;;;;;4.13;2.60;;;;;;;3.54;71.83;94974.72;5054511;28;20465;-66
2021/01/23 06:29:33;;;;;;;3.10;2.80;;;;;;;3.14;73.42;94991.84;5051645;28;20448;-66
2021/01/23 06:32:19;;;;;;;3.47;3.17;;;;;;;3.13;73.08;94983.28;5054128;28;20842;-66
2021/01/23 06:34:59;;;;;;;12.40;3.53;;;;;;;2.97;73.94;94983.25;5054406;28;20969;-66
2021/01/23 06:37:37;;;;;;;4.83;3.23;;;;;;;2.94;74.54;94983.56;5064062;28;20932;-67
2021/01/23 06:40:12;;;;;;;3.43;3.13;;;;;;;2.98;74.08;94993.44;5055473;28;20415;-67
2021/01/23 06:42:49;;;;;;;5.00;4.03;;;;;;;3.13;72.94;94988.47;5060153;28;20444;-65
2021/01/23 06:45:16;;;;;;;5.67;3.70;;;;;;;3.12;73.15;94991.19;5060516;28;20429;-66
2021/01/23 06:47:47;;;;;;;4.60;3.60;;;;;;;3.35;72.72;94981.81;5076191;28;20500;-66
2021/01/23 06:50:34;;;;;;;4.03;3.67;;;;;;;3.10;72.85;94983.59;5051629;28;20425;-65
2021/01/23 06:53:02;;;;;;;5.63;3.93;;;;;;;2.91;73.70;94984.72;5076236;28;20788;-67
2021/01/23 06:55:42;;;;;;;4.20;3.70;;;;;;;3.07;73.78;94989.09;5071073;28;20445;-66
2021/01/23 06:58:14;;;;;;;5.43;3.47;;;;;;;2.70;75.21;94985.97;5074970;28;20439;-66
2021/01/23 07:00:40;;;;;;;6.23;3.93;;;;;;;2.73;75.15;94990.00;5074712;28;20470;-65
2021/01/23 07:03:07;;;;;;;4.13;3.73;;;;;;;3.00;73.81;94983.75;5071063;28;20909;-66
2021/01/23 07:05:33;;;;;;;9.33;3.87;;;;;;;2.97;74.07;94997.00;5069657;28;20681;-67
2021/01/23 07:07:59;;;;;;;5.40;4.47;;;;;;;2.83;75.27;94995.03;5066259;28;20464;-66
2021/01/23 07:10:24;;;;;;;5.60;3.87;;;;;;;2.82;75.25;94996.00;5072965;28;20208;-67
2021/01/23 07:12:50;;;;;;;4.37;3.97;;;;;;;2.79;74.43;94999.69;5059018;28;20182;-67
2021/01/23 07:15:22;;;;;;;4.63;4.20;;;;;;;2.79;75.01;95002.28;5069429;28;20570;-66
2021/01/23 07:17:49;;;;;;;4.97;3.90;;;;;;;2.79;75.70;94997.13;5070084;28;20175;-66
2021/01/23 07:20:17;;;;;;;4.73;4.00;;;;;;;2.82;75.03;94988.25;5064126;28;20855;-65
2021/01/23 07:22:43;;;;;;;5.70;4.80;;;;;;;2.63;75.63;94991.91;5062185;28;20417;-68
2021/01/23 07:25:11;;;;;;;5.77;5.03;;;;;;;2.69;75.64;94992.09;5074056;28;20448;-66
2021/01/23 07:27:38;;;;;;;6.90;4.90;;;;;;;2.65;75.13;94990.00;5074559;28;20982;-65
2021/01/23 07:30:11;;;;;;;5.53;4.67;;;;;;;2.98;74.17;94990.06;5065873;28;20425;-65
2021/01/23 07:32:41;;;;;;;9.57;5.20;;;;;;;2.67;74.95;94993.22;5074219;28;20420;-67
2021/01/23 07:35:07;;;;;;;6.13;4.80;;;;;;;2.59;75.63;94999.97;5074040;28;20935;-68
2021/01/23 07:37:50;;;;;;;5.53;4.93;;;;;;;2.97;74.62;94993.59;5073742;28;20470;-64
2021/01/23 07:40:20;;;;;;;16.07;5.47;;;;;;;2.51;75.96;94999.97;5064391;28;20459;-65
2021/01/23 07:42:46;;;;;;;6.43;5.20;;;;;;;2.99;73.62;94989.09;5057931;28;20429;-63
2021/01/23 07:45:13;;;;;;;7.70;5.17;;;;;;;2.66;75.65;95004.50;5073815;28;20476;-67
2021/01/23 07:47:39;;;;;;;6.57;5.13;;;;;;;2.67;74.95;94995.78;5073374;28;20206;-68
2021/01/23 07:50:06;;;;;;;5.20;4.70;;;;;;;3.15;73.21;94991.69;5065765;28;20512;-67
2021/01/23 07:52:32;;;;;;;10.07;4.67;;;;;;;2.72;74.59;94993.56;5073539;28;20970;-65
2021/01/23 07:54:58;;;;;;;5.17;4.67;;;;;;;2.89;73.74;94992.63;5066738;28;20519;-66
2021/01/23 07:57:23;;;;;;;6.30;4.90;;;;;;;3.11;73.35;94990.41;5074652;28;20194;-65
2021/01/23 07:59:53;;;;;;;5.50;4.80;;;;;;;2.97;73.54;94991.03;5074911;28;20181;-66
2021/01/23 08:02:19;;;;;;;6.40;5.50;;;;;;;3.43;73.12;94988.00;5074691;28;20228;-66
2021/01/23 08:04:52;;;;;;;5.80;5.20;;;;;;;3.35;72.81;94986.22;5074732;28;20453;-67
2021/01/23 08:07:45;;;;;;;7.37;5.00;;;;;;;3.60;71.87;94974.03;5073974;28;20466;-66
2021/01/23 08:10:14;;;;;;;6.83;5.30;;;;;;;3.38;71.77;94981.50;5073070;28;20760;-67
2021/01/23 08:12:55;;;;;;;7.90;5.70;;;;;;;3.64;71.43;94982.31;5051101;28;20429;-66
2021/01/23 08:15:33;;;;;;;7.00;5.40;;;;;;;3.58;72.00;94976.00;5060947;28;20456;-66
2021/01/23 08:17:59;;;;;;;5.73;4.80;;;;;;;3.56;71.20;94979.72;5074743;28;20409;-66
2021/01/23 08:20:38;;;;;;;10.70;5.03;;;;;;;3.90;70.47;94978.72;5074914;28;20417;-66
2021/01/23 08:23:11;;;;;;;9.03;5.83;;;;;;;4.12;69.68;94978.00;5073120;28;20454;-65
2021/01/23 08:25:44;;;;;;;7.87;4.57;;;;;;;3.76;70.74;94973.25;5073986;28;20443;-68
2021/01/23 08:28:10;;;;;;;6.87;5.30;;;;;;;3.51;71.27;94978.44;5046701;28;20468;-65
2021/01/23 08:30:36;;;;;;;7.40;4.53;;;;;;;3.90;70.46;94974.34;5070538;28;20811;-66
2021/01/23 08:33:07;;;;;;;5.07;4.57;;;;;;;3.92;69.76;94971.56;5074708;28;20428;-66
2021/01/23 08:35:35;;;;;;;6.50;4.67;;;;;;;3.98;69.98;94970.91;5067184;28;20544;-66
2021/01/23 08:38:01;;;;;;;7.43;5.73;;;;;;;3.72;70.51;94966.75;5075546;28;20428;-67
2021/01/23 08:40:26;;;;;;;7.80;5.97;;;;;;;4.18;69.78;94966.16;5074999;28;20424;-66
2021/01/23 08:42:52;;;;;;;6.80;5.10;;;;;;;4.39;69.12;94967.38;5059562;28;20441;-66
2021/01/23 08:45:21;;;;;;;6.63;5.20;;;;;;;4.49;68.79;94964.59;5075145;28;20202;-66
2021/01/23 08:47:47;;;;;;;12.00;5.33;;;;;;;4.56;68.45;94970.69;5066072;28;20225;-66
2021/01/23 08:50:13;;;;;;;8.80;5.50;;;;;;;4.41;68.49;94976.59;5074019;28;20423;-65
2021/01/23 08:52:39;;;;;;;5.13;4.63;;;;;;;4.47;68.58;94969.94;5074384;28;20420;-66
2021/01/23 08:55:05;;;;;;;20.47;5.00;;;;;;;4.44;68.66;94965.09;5074363;28;20452;-67
2021/01/23 08:57:31;;;;;;;6.50;5.53;;;;;;;4.44;68.35;94965.09;5056506;28;20182;-66
2021/01/23 08:59:57;;;;;;;8.37;4.40;;;;;;;4.30;68.82;94959.63;5086342;28;20427;-66
2021/01/23 09:02:23;;;;;;;14.23;5.30;;;;;;;4.28;69.71;94960.78;5090593;28;20448;-66
2021/01/23 09:04:49;;;;;;;6.63;5.10;;;;;;;4.66;68.21;94957.53;5075274;28;20256;-67
2021/01/23 09:07:15;;;;;;;8.37;4.80;;;;;;;4.60;68.29;94959.03;5055535;28;20224;-67
2021/01/23 09:09:40;;;;;;;7.63;4.60;;;;;;;4.66;67.51;94955.75;5063942;28;20179;-66
2021/01/23 09:12:07;;;;;;;6.67;4.63;;;;;;;4.74;68.13;94947.09;5056134;28;20626;-66
2021/01/23 09:14:32;;;;;;;6.40;4.40;;;;;;;4.73;67.94;94948.06;5072966;28;20202;-65
2021/01/23 09:16:58;;;;;;;7.77;4.97;;;;;;;4.71;68.05;94950.06;5073559;28;20427;-67
2021/01/23 09:19:24;;;;;;;6.40;4.87;;;;;;;4.80;67.22;94948.19;5073549;28;20178;-68
2021/01/23 09:21:50;;;;;;;13.23;5.47;;;;;;;4.95;67.25;94951.69;5073951;28;20174;-66
2021/01/23 09:24:16;;;;;;;7.30;5.67;;;;;;;4.95;66.62;94945.69;5066534;28;20224;-65
2021/01/23 09:26:42;;;;;;;6.53;5.30;;;;;;;4.85;66.96;94944.09;5072696;28;20289;-66
2021/01/23 09:29:08;;;;;;;11.07;5.70;;;;;;;4.71;67.60;94950.84;5058196;28;20923;-64
2021/01/23 09:31:34;;;;;;;6.33;4.70;;;;;;;5.00;67.12;94940.78;5073421;28;20687;-66
2021/01/23 09:33:59;;;;;;;8.00;5.40;;;;;;;4.81;67.68;94934.25;5074518;28;20417;-64
2021/01/23 09:36:26;;;;;;;5.93;5.13;;;;;;;4.83;67.02;94932.28;5075064;28;20718;-68
2021/01/23 09:38:52;;;;;;;7.43;5.97;;;;;;;4.90;67.69;94923.66;5075516;28;20799;-66
2021/01/23 09:41:18;;;;;;;9.30;5.77;;;;;;;4.80;67.06;94924.84;5067027;28;20422;-66
2021/01/23 09:43:43;;;;;;;10.70;4.83;;;;;;;4.76;67.30;94922.59;5068353;28;20193;-68
2021/01/23 09:46:09;;;;;;;6.20;4.80;;;;;;;4.82;67.15;94921.13;5075503;28;20571;-66
2021/01/23 09:48:35;;;;;;;6.63;5.43;;;;;;;4.89;66.72;94919.44;5073930;28;20207;-66
2021/01/23 09:51:01;;;;;;;9.20;6.20;;;;;;;4.99;66.38;94914.03;5068230;28;20232;-66
2021/01/23 09:53:26;;;;;;;7.10;4.97;;;;;;;5.17;66.30;94908.53;5069009;28;20194;-66
2021/01/23 09:55:52;;;;;;;8.50;5.37;;;;;;;5.32;65.56;94907.75;5071154;28;20226;-67
2021/01/23 09:58:19;;;;;;;7.47;5.20;;;;;;;5.32;65.91;94905.97;5056446;28;20179;-66
2021/01/23 10:00:47;;;;;;;6.23;4.77;;;;;;;5.18;66.36;94909.31;5074510;28;20174;-65
2021/01/23 10:03:13;;;;;;;7.80;4.80;;;;;;;5.37;66.00;94898.47;5074304;28;20435;-66
2021/01/23 10:05:38;;;;;;;9.83;5.50;;;;;;;5.16;65.99;94895.72;5066852;28;20479;-66
2021/01/23 10:08:05;;;;;;;6.13;4.43;;;;;;;5.10;66.30;94892.03;5072187;28;20460;-66
2021/01/23 10:10:30;;;;;;;6.63;4.67;;;;;;;5.14;65.78;94895.88;5075218;28;20515;-65
2021/01/23 10:12:56;;;;;;;5.33;4.03;;;;;;;5.20;65.92;94886.59;5041423;28;20421;-66
2021/01/23 10:15:22;;;;;;;5.53;4.50;;;;;;;5.35;65.60;94884.84;5072600;28;20632;-66
2021/01/23 10:17:47;;;;;;;5.53;4.50;;;;;;;5.24;65.67;94882.66;5074190;28;20238;-67
2021/01/23 10:20:13;;;;;;;5.10;3.87;;;;;;;5.05;66.48;94878.75;5073776;28;20278;-66
2021/01/23 10:22:39;;;;;;;4.60;4.00;;;;;;;5.36;65.45;94865.66;5066538;28;20178;-66
2021/01/23 10:25:06;;;;;;;6.30;4.70;;;;;;;5.57;64.73;94877.16;5073979;28;20440;-68
2021/01/23 10:27:32;;;;;;;5.10;4.60;;;;;;;5.31;64.93;94867.19;5065884;28;20207;-66
2021/01/23 10:29:57;;;;;;;5.43;3.90;;;;;;;5.20;66.45;94860.63;5070922;28;20470;-67
2021/01/23 10:32:23;;;;;;;6.97;4.10;;;;;;;5.16;66.18;94862.75;5073489;28;20707;-66
2021/01/23 10:34:49;;;;;;;4.70;4.30;;;;;;;5.26;66.19;94870.31;5072349;28;20197;-68
2021/01/23 10:37:14;;;;;;;4.10;3.80;;;;;;;5.35;65.60;94868.47;5073611;28;20197;-67
2021/01/23 10:39:40;;;;;;;6.70;4.00;;;;;;;5.08;66.54;94857.66;5076811;28;20170;-66
2021/01/23 10:42:06;;;;;;;5.27;4.00;;;;;;;5.27;66.28;94852.94;5059547;28;20182;-65
2021/01/23 10:44:37;;;;;;;6.30;4.83;;;;;;;4.94;68.25;94841.03;5070097;28;20179;-65
2021/01/23 10:47:03;;;;;;;5.57;3.80;;;;;;;5.26;66.99;94841.75;5075694;28;22025;-66
2021/01/23 10:49:29;;;;;;;9.93;4.70;;;;;;;5.29;67.58;94838.81;5075954;28;20459;-67
2021/01/23 10:51:55;;;;;;;7.00;4.50;;;;;;;5.36;66.58;94834.50;5076934;28;20260;-67
2021/01/23 10:54:21;;;;;;;6.07;4.37;;;;;;;5.34;66.73;94825.28;5076536;28;20448;-65
2021/01/23 10:56:46;;;;;;;13.77;6.80;;;;;;;5.07;66.58;94815.28;5077191;28;20177;-64
2021/01/23 10:59:12;;;;;;;7.73;5.20;;;;;;;5.45;66.33;94819.66;5077300;28;20265;-66
2021/01/23 11:01:38;;;;;;;5.27;4.13;;;;;;;5.19;66.62;94817.44;5076501;28;20185;-68
2021/01/23 11:04:04;;;;;;;5.10;4.00;;;;;;;5.45;65.70;94811.84;5075433;28;20583;-65
2021/01/23 11:06:29;;;;;;;6.77;4.10;;;;;;;5.84;64.82;94817.75;5076451;28;20258;-66
2021/01/23 11:08:55;;;;;;;7.43;3.90;;;;;;;5.72;64.54;94806.19;5068570;28;20920;-67
2021/01/23 11:11:21;;;;;;;4.03;3.60;;;;;;;5.63;64.84;94808.06;5066229;28;20180;-64
2021/01/23 11:13:47;;;;;;;4.50;3.53;;;;;;;5.83;64.39;94803.13;5062515;28;20175;-66
2021/01/23 11:16:12;;;;;;;6.93;4.50;;;;;;;5.68;65.50;94796.16;5076825;28;20223;-69
2021/01/23 11:18:38;;;;;;;5.00;3.83;;;;;;;5.70;65.07;94793.38;5076942;28;20609;-68
2021/01/23 11:21:05;;;;;;;6.10;4.40;;;;;;;5.97;64.13;94780.72;5070123;28;20182;-68
2021/01/23 11:23:30;;;;;;;5.23;3.60;;;;;;;5.78;64.72;94782.88;5066676;28;20200;-66
2021/01/23 11:25:56;;;;;;;6.80;3.77;;;;;;;5.17;66.31;94785.66;5075176;28;20527;-66
2021/01/23 11:28:22;;;;;;;4.03;3.60;;;;;;;5.05;67.99;94780.91;5067186;28;20202;-67
2021/01/23 11:30:49;;;;;;;4.60;4.10;;;;;;;4.51;69.23;94778.47;5075944;28;20182;-67
2021/01/23 11:33:15;;;;;;;4.80;3.80;;;;;;;5.02;68.13;94789.06;5068461;28;20544;-66
2021/01/23 11:35:41;;;;;;;6.07;3.83;;;;;;;4.71;68.71;94778.81;5075550;28;20499;-66
2021/01/23 11:38:07;;;;;;;3.63;3.23;;;;;;;5.10;67.02;94785.59;5071539;28;20229;-66
2021/01/23 11:40:32;;;;;;;6.03;3.57;;;;;;;5.28;66.99;94780.06;5070472;28;20175;-66
2021/01/23 11:42:58;;;;;;;4.07;3.13;;;;;;;4.87;68.37;94773.44;5056543;28;20241;-70
2021/01/23 11:45:24;;;;;;;9.23;4.20;;;;;;;5.52;66.20;94776.38;5069530;28;20294;-67
2021/01/23 11:47:50;;;;;;;3.30;3.00;;;;;;;5.66;65.82;94776.53;5067415;28;20457;-67